sensor_id;sensor_type;location;lat;lon;timestamp;pressure;altitude;pressure_sealevel;temperature;humidity
70437;BME280;57877;39.750;-104.894;2024-03-08T00:02:05;83123.86;;;2.89;46.18
70437;BME280;57877;39.750;-104.894;2024-03-08T00:04:30;83128.32;;;2.32;46.80
70437;BME280;57877;39.750;-104.894;2024-03-08T00:06:55;83131.00;;;2.55;46.87
70437;BME280;57877;39.750;-104.894;2024-03-08T00:09:20;83131.06;;;2.72;46.36
70437;BME280;57877;39.750;-104.894;2024-03-08T00:11:45;83136.65;;;2.96;45.42
70437;BME280;57877;39.750;-104.894;2024-03-08T00:14:10;83139.06;;;3.36;43.68
70437;BME280;57877;39.750;-104.894;2024-03-08T00:16:35;83143.50;;;2.93;44.66
70437;BME280;57877;39.750;-104.894;2024-03-08T00:19:00;83146.47;;;2.94;44.23
70437;BME280;57877;39.750;-104.894;2024-03-08T00:21:26;83151.88;;;3.07;44.69
70437;BME280;57877;39.750;-104.894;2024-03-08T00:23:51;83154.85;;;3.20;44.68
70437;BME280;57877;39.750;-104.894;2024-03-08T00:26:16;83160.33;;;3.70;43.63
70437;BME280;57877;39.750;-104.894;2024-03-08T00:28:41;83163.01;;;4.21;42.72
70437;BME280;57877;39.750;-104.894;2024-03-08T00:31:06;83168.09;;;3.23;44.34
70437;BME280;57877;39.750;-104.894;2024-03-08T00:33:31;83174.80;;;3.51;44.10
70437;BME280;57877;39.750;-104.894;2024-03-08T00:35:56;83179.69;;;2.19;45.95
70437;BME280;57877;39.750;-104.894;2024-03-08T00:38:21;83184.52;;;2.21;47.05
70437;BME280;57877;39.750;-104.894;2024-03-08T00:40:46;83188.78;;;2.74;46.00
70437;BME280;57877;39.750;-104.894;2024-03-08T00:43:11;83192.19;;;2.93;45.49
70437;BME280;57877;39.750;-104.894;2024-03-08T00:45:37;83197.00;;;2.33;47.01
70437;BME280;57877;39.750;-104.894;2024-03-08T00:48:02;83196.73;;;2.20;47.72
70437;BME280;57877;39.750;-104.894;2024-03-08T00:50:27;83198.02;;;1.81;48.78
70437;BME280;57877;39.750;-104.894;2024-03-08T00:52:52;83203.50;;;2.04;48.72
70437;BME280;57877;39.750;-104.894;2024-03-08T00:55:17;83207.08;;;2.21;48.69
70437;BME280;57877;39.750;-104.894;2024-03-08T00:57:42;83207.17;;;2.28;48.62
70437;BME280;57877;39.750;-104.894;2024-03-08T01:00:08;83209.99;;;2.60;48.79
70437;BME280;57877;39.750;-104.894;2024-03-08T01:02:32;83211.92;;;1.81;49.44
70437;BME280;57877;39.750;-104.894;2024-03-08T01:04:57;83213.85;;;1.53;50.97
70437;BME280;57877;39.750;-104.894;2024-03-08T01:07:22;83216.74;;;1.59;50.83
70437;BME280;57877;39.750;-104.894;2024-03-08T01:09:48;83222.27;;;2.19;49.07
70437;BME280;57877;39.750;-104.894;2024-03-08T01:12:13;83224.57;;;2.05;49.40
70437;BME280;57877;39.750;-104.894;2024-03-08T01:14:38;83226.79;;;1.92;50.10
70437;BME280;57877;39.750;-104.894;2024-03-08T01:17:03;83232.91;;;1.29;50.97
70437;BME280;57877;39.750;-104.894;2024-03-08T01:19:28;83232.99;;;1.43;51.95
70437;BME280;57877;39.750;-104.894;2024-03-08T01:21:53;83235.98;;;2.01;50.59
70437;BME280;57877;39.750;-104.894;2024-03-08T01:24:19;83239.00;;;1.32;51.40
70437;BME280;57877;39.750;-104.894;2024-03-08T01:26:43;83243.37;;;1.83;50.48
70437;BME280;57877;39.750;-104.894;2024-03-08T01:29:09;83249.23;;;1.44;50.64
70437;BME280;57877;39.750;-104.894;2024-03-08T01:31:34;83252.83;;;2.04;49.37
70437;BME280;57877;39.750;-104.894;2024-03-08T01:33:59;83256.93;;;1.54;50.22
70437;BME280;57877;39.750;-104.894;2024-03-08T01:36:24;83258.75;;;1.55;50.30
70437;BME280;57877;39.750;-104.894;2024-03-08T01:38:49;83262.17;;;1.97;49.65
70437;BME280;57877;39.750;-104.894;2024-03-08T01:41:14;83269.27;;;0.91;52.04
70437;BME280;57877;39.750;-104.894;2024-03-08T01:43:39;83268.78;;;0.47;53.35
70437;BME280;57877;39.750;-104.894;2024-03-08T01:46:05;83272.20;;;0.21;53.73
70437;BME280;57877;39.750;-104.894;2024-03-08T01:48:29;83276.40;;;-0.03;55.89
70437;BME280;57877;39.750;-104.894;2024-03-08T01:50:55;83280.73;;;-0.15;54.63
70437;BME280;57877;39.750;-104.894;2024-03-08T01:53:20;83281.97;;;0.08;55.53
70437;BME280;57877;39.750;-104.894;2024-03-08T01:55:46;83284.09;;;-0.26;54.73
70437;BME280;57877;39.750;-104.894;2024-03-08T01:58:10;83285.50;;;0.46;54.13
70437;BME280;57877;39.750;-104.894;2024-03-08T02:00:35;83291.19;;;-1.95;58.80
70437;BME280;57877;39.750;-104.894;2024-03-08T02:03:00;83292.78;;;-0.04;55.21
70437;BME280;57877;39.750;-104.894;2024-03-08T02:05:26;83293.51;;;0.09;54.82
70437;BME280;57877;39.750;-104.894;2024-03-08T02:07:50;83298.60;;;-0.19;56.26
70437;BME280;57877;39.750;-104.894;2024-03-08T02:10:16;83304.29;;;0.09;56.61
70437;BME280;57877;39.750;-104.894;2024-03-08T02:12:41;83305.98;;;-0.42;56.88
70437;BME280;57877;39.750;-104.894;2024-03-08T02:15:06;83309.14;;;-0.23;57.22
70437;BME280;57877;39.750;-104.894;2024-03-08T02:17:31;83309.81;;;0.09;57.98
70437;BME280;57877;39.750;-104.894;2024-03-08T02:19:56;83313.88;;;-0.03;58.71
70437;BME280;57877;39.750;-104.894;2024-03-08T02:22:21;83316.17;;;-0.15;57.53
70437;BME280;57877;39.750;-104.894;2024-03-08T02:24:47;83319.60;;;-0.38;60.09
70437;BME280;57877;39.750;-104.894;2024-03-08T02:27:11;83321.64;;;-0.04;58.23
70437;BME280;57877;39.750;-104.894;2024-03-08T02:29:37;83327.89;;;-0.38;59.29
70437;BME280;57877;39.750;-104.894;2024-03-08T02:32:02;83330.33;;;-0.49;59.25
70437;BME280;57877;39.750;-104.894;2024-03-08T02:34:27;83333.32;;;-0.13;58.56
70437;BME280;57877;39.750;-104.894;2024-03-08T02:36:52;83336.82;;;-0.34;58.95
70437;BME280;57877;39.750;-104.894;2024-03-08T02:39:17;83341.60;;;-0.73;58.77
70437;BME280;57877;39.750;-104.894;2024-03-08T02:41:42;83343.43;;;-0.45;57.76
70437;BME280;57877;39.750;-104.894;2024-03-08T02:44:07;83345.28;;;-0.70;59.13
70437;BME280;57877;39.750;-104.894;2024-03-08T02:46:32;83349.94;;;0.01;57.82
70437;BME280;57877;39.750;-104.894;2024-03-08T02:48:58;83354.18;;;0.11;57.80
70437;BME280;57877;39.750;-104.894;2024-03-08T02:51:23;83357.12;;;-0.13;56.24
70437;BME280;57877;39.750;-104.894;2024-03-08T02:53:48;83356.01;;;-0.32;56.11
70437;BME280;57877;39.750;-104.894;2024-03-08T02:56:13;83354.94;;;0.54;55.36
70437;BME280;57877;39.750;-104.894;2024-03-08T02:58:38;83360.90;;;-0.01;55.92
70437;BME280;57877;39.750;-104.894;2024-03-08T03:01:03;83362.47;;;0.11;55.34
70437;BME280;57877;39.750;-104.894;2024-03-08T03:03:28;83365.73;;;-0.04;55.10
70437;BME280;57877;39.750;-104.894;2024-03-08T03:05:53;83365.00;;;0.04;55.06
70437;BME280;57877;39.750;-104.894;2024-03-08T03:08:19;83368.89;;;-0.45;55.47
70437;BME280;57877;39.750;-104.894;2024-03-08T03:10:44;83369.18;;;-0.97;56.77
70437;BME280;57877;39.750;-104.894;2024-03-08T03:13:09;83371.04;;;-0.39;55.78
70437;BME280;57877;39.750;-104.894;2024-03-08T03:15:34;83377.55;;;-0.07;54.45
70437;BME280;57877;39.750;-104.894;2024-03-08T03:18:00;83381.02;;;0.10;53.85
70437;BME280;57877;39.750;-104.894;2024-03-08T03:20:24;83379.21;;;0.47;52.71
70437;BME280;57877;39.750;-104.894;2024-03-08T03:22:50;83386.75;;;0.04;53.07
70437;BME280;57877;39.750;-104.894;2024-03-08T03:25:15;83386.35;;;-0.32;54.43
70437;BME280;57877;39.750;-104.894;2024-03-08T03:27:40;83389.19;;;-0.19;53.77
70437;BME280;57877;39.750;-104.894;2024-03-08T03:30:06;83392.52;;;-0.40;54.48
70437;BME280;57877;39.750;-104.894;2024-03-08T03:32:30;83394.58;;;-0.52;53.53
70437;BME280;57877;39.750;-104.894;2024-03-08T03:34:55;83395.11;;;-0.30;54.15
70437;BME280;57877;39.750;-104.894;2024-03-08T03:37:20;83404.51;;;-0.64;53.76
70437;BME280;57877;39.750;-104.894;2024-03-08T03:39:46;83405.57;;;-0.52;53.92
70437;BME280;57877;39.750;-104.894;2024-03-08T03:42:11;83408.98;;;-1.01;54.31
70437;BME280;57877;39.750;-104.894;2024-03-08T03:44:36;83410.71;;;-0.58;53.41
70437;BME280;57877;39.750;-104.894;2024-03-08T03:47:01;83415.09;;;-0.70;53.41
70437;BME280;57877;39.750;-104.894;2024-03-08T03:49:26;83417.42;;;-0.59;54.43
70437;BME280;57877;39.750;-104.894;2024-03-08T03:51:51;83420.19;;;-0.63;54.45
70437;BME280;57877;39.750;-104.894;2024-03-08T03:54:16;83422.65;;;-0.75;54.78
70437;BME280;57877;39.750;-104.894;2024-03-08T03:56:42;83426.94;;;-0.66;53.82
70437;BME280;57877;39.750;-104.894;2024-03-08T03:59:07;83431.48;;;-0.41;53.99
70437;BME280;57877;39.750;-104.894;2024-03-08T04:01:32;83433.83;;;-0.94;54.61
70437;BME280;57877;39.750;-104.894;2024-03-08T04:03:57;83435.23;;;-0.44;53.62
70437;BME280;57877;39.750;-104.894;2024-03-08T04:06:22;83436.56;;;-0.09;53.17
70437;BME280;57877;39.750;-104.894;2024-03-08T04:08:47;83437.71;;;-0.50;52.78
70437;BME280;57877;39.750;-104.894;2024-03-08T04:11:13;83438.85;;;0.04;51.70
70437;BME280;57877;39.750;-104.894;2024-03-08T04:13:38;83439.50;;;-0.17;51.74
70437;BME280;57877;39.750;-104.894;2024-03-08T04:16:03;83440.16;;;-0.76;52.99
70437;BME280;57877;39.750;-104.894;2024-03-08T04:18:28;83442.35;;;-0.54;52.40
70437;BME280;57877;39.750;-104.894;2024-03-08T04:20:53;83440.95;;;0.21;51.07
70437;BME280;57877;39.750;-104.894;2024-03-08T04:23:18;83441.98;;;0.59;50.57
70437;BME280;57877;39.750;-104.894;2024-03-08T04:25:44;83444.68;;;0.08;50.25
70437;BME280;57877;39.750;-104.894;2024-03-08T04:28:09;83449.78;;;-0.62;51.59
70437;BME280;57877;39.750;-104.894;2024-03-08T04:30:34;83453.78;;;-0.62;51.79
70437;BME280;57877;39.750;-104.894;2024-03-08T04:32:59;83454.33;;;-0.75;51.72
70437;BME280;57877;39.750;-104.894;2024-03-08T04:35:24;83454.09;;;-2.49;56.09
70437;BME280;57877;39.750;-104.894;2024-03-08T04:37:49;83456.77;;;-0.71;52.87
70437;BME280;57877;39.750;-104.894;2024-03-08T04:40:14;83457.90;;;-0.81;53.41
70437;BME280;57877;39.750;-104.894;2024-03-08T04:42:41;83460.50;;;-0.84;53.75
70437;BME280;57877;39.750;-104.894;2024-03-08T04:45:05;83458.64;;;-0.68;53.24
70437;BME280;57877;39.750;-104.894;2024-03-08T04:47:30;83460.34;;;-0.66;52.51
70437;BME280;57877;39.750;-104.894;2024-03-08T04:49:55;83463.25;;;-0.48;52.82
70437;BME280;57877;39.750;-104.894;2024-03-08T04:52:20;83469.44;;;-0.16;51.18
70437;BME280;57877;39.750;-104.894;2024-03-08T04:54:45;83468.63;;;-0.45;51.95
70437;BME280;57877;39.750;-104.894;2024-03-08T04:57:10;83468.90;;;-0.67;51.23
70437;BME280;57877;39.750;-104.894;2024-03-08T04:59:36;83468.91;;;-0.66;52.01
70437;BME280;57877;39.750;-104.894;2024-03-08T05:02:01;83464.90;;;-0.76;51.46
70437;BME280;57877;39.750;-104.894;2024-03-08T05:04:26;83469.60;;;-0.10;50.95
70437;BME280;57877;39.750;-104.894;2024-03-08T05:06:51;83474.29;;;-0.22;50.46
70437;BME280;57877;39.750;-104.894;2024-03-08T05:09:16;83474.92;;;0.18;49.30
70437;BME280;57877;39.750;-104.894;2024-03-08T05:11:43;83482.08;;;0.34;48.54
70437;BME280;57877;39.750;-104.894;2024-03-08T05:14:07;83482.70;;;0.89;47.58
70437;BME280;57877;39.750;-104.894;2024-03-08T05:16:32;83488.85;;;0.05;47.98
70437;BME280;57877;39.750;-104.894;2024-03-08T05:18:57;83489.76;;;0.93;47.55
70437;BME280;57877;39.750;-104.894;2024-03-08T05:21:22;83489.86;;;0.20;49.18
70437;BME280;57877;39.750;-104.894;2024-03-08T05:23:47;83490.65;;;0.07;49.95
70437;BME280;57877;39.750;-104.894;2024-03-08T05:26:12;83488.68;;;0.27;49.93
70437;BME280;57877;39.750;-104.894;2024-03-08T05:28:38;83490.60;;;-0.30;49.35
70437;BME280;57877;39.750;-104.894;2024-03-08T05:31:03;83495.40;;;0.41;48.29
70437;BME280;57877;39.750;-104.894;2024-03-08T05:33:28;83500.45;;;0.03;49.82
70437;BME280;57877;39.750;-104.894;2024-03-08T05:35:53;83499.97;;;-0.95;52.31
70437;BME280;57877;39.750;-104.894;2024-03-08T05:38:18;83502.34;;;-0.39;51.28
70437;BME280;57877;39.750;-104.894;2024-03-08T05:40:43;83504.79;;;-0.00;49.47
70437;BME280;57877;39.750;-104.894;2024-03-08T05:43:08;83505.95;;;-0.23;51.05
70437;BME280;57877;39.750;-104.894;2024-03-08T05:45:34;83505.01;;;0.74;49.10
70437;BME280;57877;39.750;-104.894;2024-03-08T05:47:59;83503.72;;;0.29;50.29
70437;BME280;57877;39.750;-104.894;2024-03-08T05:50:24;83505.52;;;0.13;50.92
70437;BME280;57877;39.750;-104.894;2024-03-08T05:52:49;83506.32;;;0.31;50.82
70437;BME280;57877;39.750;-104.894;2024-03-08T05:55:14;83511.60;;;0.26;52.08
70437;BME280;57877;39.750;-104.894;2024-03-08T05:57:39;83515.49;;;-0.15;53.58
70437;BME280;57877;39.750;-104.894;2024-03-08T06:00:05;83518.49;;;-1.02;55.79
70437;BME280;57877;39.750;-104.894;2024-03-08T06:02:29;83517.37;;;-1.66;57.62
70437;BME280;57877;39.750;-104.894;2024-03-08T06:04:54;83516.15;;;-1.93;59.32
70437;BME280;57877;39.750;-104.894;2024-03-08T06:07:20;83519.35;;;-2.00;59.79
70437;BME280;57877;39.750;-104.894;2024-03-08T06:09:45;83520.70;;;-1.86;59.56
70437;BME280;57877;39.750;-104.894;2024-03-08T06:12:10;83523.92;;;-0.66;55.92
70437;BME280;57877;39.750;-104.894;2024-03-08T06:14:35;83525.08;;;-2.24;57.01
70437;BME280;57877;39.750;-104.894;2024-03-08T06:17:00;83530.50;;;-1.37;57.99
70437;BME280;57877;39.750;-104.894;2024-03-08T06:19:25;83535.57;;;-1.22;56.84
70437;BME280;57877;39.750;-104.894;2024-03-08T06:21:51;83537.73;;;-1.26;56.02
70437;BME280;57877;39.750;-104.894;2024-03-08T06:24:16;83541.96;;;-2.03;58.79
70437;BME280;57877;39.750;-104.894;2024-03-08T06:26:41;83546.27;;;-1.66;58.05
70437;BME280;57877;39.750;-104.894;2024-03-08T06:29:06;83549.84;;;-2.85;61.60
70437;BME280;57877;39.750;-104.894;2024-03-08T06:31:32;83555.47;;;-2.41;60.32
70437;BME280;57877;39.750;-104.894;2024-03-08T06:33:57;83557.76;;;-2.13;59.94
70437;BME280;57877;39.750;-104.894;2024-03-08T06:36:22;83558.31;;;-2.69;60.89
70437;BME280;57877;39.750;-104.894;2024-03-08T06:38:47;83564.46;;;-2.04;59.77
70437;BME280;57877;39.750;-104.894;2024-03-08T06:41:13;83565.18;;;-2.52;59.49
70437;BME280;57877;39.750;-104.894;2024-03-08T06:43:37;83568.47;;;-3.39;62.00
70437;BME280;57877;39.750;-104.894;2024-03-08T06:46:03;83569.72;;;-2.27;60.53
70437;BME280;57877;39.750;-104.894;2024-03-08T06:48:28;83572.37;;;-3.04;61.98
70437;BME280;57877;39.750;-104.894;2024-03-08T06:50:53;83573.27;;;-2.76;59.59
70437;BME280;57877;39.750;-104.894;2024-03-08T06:53:18;83578.37;;;-2.50;59.42
70437;BME280;57877;39.750;-104.894;2024-03-08T06:55:43;83583.28;;;-3.87;60.84
70437;BME280;57877;39.750;-104.894;2024-03-08T06:58:09;83584.93;;;-3.33;62.05
70437;BME280;57877;39.750;-104.894;2024-03-08T07:00:34;83586.32;;;-2.75;61.03
70437;BME280;57877;39.750;-104.894;2024-03-08T07:02:59;83583.90;;;-2.77;60.76
70437;BME280;57877;39.750;-104.894;2024-03-08T07:05:24;83589.71;;;-3.02;59.86
70437;BME280;57877;39.750;-104.894;2024-03-08T07:07:49;83595.89;;;-3.21;61.43
70437;BME280;57877;39.750;-104.894;2024-03-08T07:10:15;83595.42;;;-2.86;59.34
70437;BME280;57877;39.750;-104.894;2024-03-08T07:12:40;83600.92;;;-4.20;62.24
70437;BME280;57877;39.750;-104.894;2024-03-08T07:15:06;83600.22;;;-3.09;61.84
70437;BME280;57877;39.750;-104.894;2024-03-08T07:17:30;83600.90;;;-2.77;60.07
70437;BME280;57877;39.750;-104.894;2024-03-08T07:19:55;83599.41;;;-2.95;58.24
70437;BME280;57877;39.750;-104.894;2024-03-08T07:22:20;83599.36;;;-2.51;57.73
70437;BME280;57877;39.750;-104.894;2024-03-08T07:24:46;83602.50;;;-4.19;61.89
70437;BME280;57877;39.750;-104.894;2024-03-08T07:27:11;83607.69;;;-4.20;62.16
70437;BME280;57877;39.750;-104.894;2024-03-08T07:29:36;83606.33;;;-3.30;62.18
70437;BME280;57877;39.750;-104.894;2024-03-08T07:32:01;83607.56;;;-4.01;59.55
70437;BME280;57877;39.750;-104.894;2024-03-08T07:34:26;83610.41;;;-3.09;61.72
70437;BME280;57877;39.750;-104.894;2024-03-08T07:36:52;83612.32;;;-2.81;60.13
70437;BME280;57877;39.750;-104.894;2024-03-08T07:39:17;83612.90;;;-2.51;59.33
70437;BME280;57877;39.750;-104.894;2024-03-08T07:41:42;83617.86;;;-3.28;60.59
70437;BME280;57877;39.750;-104.894;2024-03-08T07:44:07;83621.76;;;-3.63;61.90
70437;BME280;57877;39.750;-104.894;2024-03-08T07:46:32;83623.67;;;-3.69;61.57
70437;BME280;57877;39.750;-104.894;2024-03-08T07:48:58;83627.76;;;-3.23;59.82
70437;BME280;57877;39.750;-104.894;2024-03-08T07:51:23;83629.77;;;-3.39;60.23
70437;BME280;57877;39.750;-104.894;2024-03-08T07:53:48;83628.32;;;-2.66;58.42
70437;BME280;57877;39.750;-104.894;2024-03-08T07:56:13;83631.95;;;-2.40;57.88
70437;BME280;57877;39.750;-104.894;2024-03-08T07:58:38;83640.10;;;-4.54;59.71
70437;BME280;57877;39.750;-104.894;2024-03-08T08:01:04;83636.59;;;-2.93;58.78
70437;BME280;57877;39.750;-104.894;2024-03-08T08:03:29;83641.16;;;-3.78;61.26
70437;BME280;57877;39.750;-104.894;2024-03-08T08:05:54;83641.92;;;-3.68;60.56
70437;BME280;57877;39.750;-104.894;2024-03-08T08:08:19;83642.14;;;-3.39;61.82
70437;BME280;57877;39.750;-104.894;2024-03-08T08:10:44;83643.84;;;-3.59;60.54
70437;BME280;57877;39.750;-104.894;2024-03-08T08:13:09;83646.12;;;-4.35;62.17
70437;BME280;57877;39.750;-104.894;2024-03-08T08:15:35;83643.34;;;-3.19;59.51
70437;BME280;57877;39.750;-104.894;2024-03-08T08:18:00;83643.24;;;-3.12;59.10
70437;BME280;57877;39.750;-104.894;2024-03-08T08:20:25;83648.64;;;-3.18;59.87
70437;BME280;57877;39.750;-104.894;2024-03-08T08:22:50;83651.39;;;-3.01;59.76
70437;BME280;57877;39.750;-104.894;2024-03-08T08:25:16;83654.15;;;-3.01;58.62
70437;BME280;57877;39.750;-104.894;2024-03-08T08:27:41;83654.44;;;-2.73;57.77
70437;BME280;57877;39.750;-104.894;2024-03-08T08:30:07;83654.22;;;-3.40;59.27
70437;BME280;57877;39.750;-104.894;2024-03-08T08:32:32;83654.21;;;-4.12;59.29
70437;BME280;57877;39.750;-104.894;2024-03-08T08:34:56;83653.35;;;-3.90;57.07
70437;BME280;57877;39.750;-104.894;2024-03-08T08:37:22;83652.62;;;-1.97;56.24
70437;BME280;57877;39.750;-104.894;2024-03-08T08:39:47;83651.69;;;-2.08;56.18
70437;BME280;57877;39.750;-104.894;2024-03-08T08:42:12;83654.60;;;-1.18;54.78
70437;BME280;57877;39.750;-104.894;2024-03-08T08:44:37;83654.28;;;-2.51;55.02
70437;BME280;57877;39.750;-104.894;2024-03-08T08:47:02;83654.25;;;-2.38;55.45
70437;BME280;57877;39.750;-104.894;2024-03-08T08:49:27;83655.99;;;-2.19;55.15
70437;BME280;57877;39.750;-104.894;2024-03-08T08:51:53;83659.34;;;-2.33;56.03
70437;BME280;57877;39.750;-104.894;2024-03-08T08:54:18;83658.72;;;-2.31;55.37
70437;BME280;57877;39.750;-104.894;2024-03-08T08:56:43;83663.12;;;-3.42;54.81
70437;BME280;57877;39.750;-104.894;2024-03-08T08:59:08;83663.38;;;-3.28;56.38
70437;BME280;57877;39.750;-104.894;2024-03-08T09:01:33;83661.33;;;-2.48;55.62
70437;BME280;57877;39.750;-104.894;2024-03-08T09:03:59;83657.33;;;-2.20;54.29
70437;BME280;57877;39.750;-104.894;2024-03-08T09:06:24;83655.56;;;-3.07;54.63
70437;BME280;57877;39.750;-104.894;2024-03-08T09:08:49;83656.13;;;-1.77;53.77
70437;BME280;57877;39.750;-104.894;2024-03-08T09:11:14;83656.77;;;-1.46;52.88
70437;BME280;57877;39.750;-104.894;2024-03-08T09:13:39;83659.54;;;-1.92;52.93
70437;BME280;57877;39.750;-104.894;2024-03-08T09:16:05;83663.48;;;-1.89;53.75
70437;BME280;57877;39.750;-104.894;2024-03-08T09:18:30;83664.24;;;-1.89;53.24
70437;BME280;57877;39.750;-104.894;2024-03-08T09:20:55;83666.74;;;-1.74;52.87
70437;BME280;57877;39.750;-104.894;2024-03-08T09:23:20;83666.43;;;-2.24;53.88
70437;BME280;57877;39.750;-104.894;2024-03-08T09:25:46;83669.24;;;-2.48;55.66
70437;BME280;57877;39.750;-104.894;2024-03-08T09:28:10;83667.71;;;-1.61;53.63
70437;BME280;57877;39.750;-104.894;2024-03-08T09:30:36;83667.30;;;-2.62;53.69
70437;BME280;57877;39.750;-104.894;2024-03-08T09:33:01;83671.32;;;-2.68;54.91
70437;BME280;57877;39.750;-104.894;2024-03-08T09:35:26;83672.66;;;-2.47;54.97
70437;BME280;57877;39.750;-104.894;2024-03-08T09:37:52;83670.84;;;-1.78;53.40
70437;BME280;57877;39.750;-104.894;2024-03-08T09:40:17;83671.29;;;-2.40;53.24
70437;BME280;57877;39.750;-104.894;2024-03-08T09:42:42;83679.94;;;-3.46;54.46
70437;BME280;57877;39.750;-104.894;2024-03-08T09:45:09;83682.49;;;-3.53;56.76
70437;BME280;57877;39.750;-104.894;2024-03-08T09:47:32;83681.76;;;-3.59;57.53
70437;BME280;57877;39.750;-104.894;2024-03-08T09:49:57;83680.90;;;-3.43;55.90
70437;BME280;57877;39.750;-104.894;2024-03-08T09:52:23;83681.61;;;-3.24;57.09
70437;BME280;57877;39.750;-104.894;2024-03-08T09:54:48;83689.60;;;-4.00;57.90
70437;BME280;57877;39.750;-104.894;2024-03-08T09:57:13;83689.70;;;-2.36;55.42
70437;BME280;57877;39.750;-104.894;2024-03-08T09:59:38;83691.05;;;-2.21;55.56
70437;BME280;57877;39.750;-104.894;2024-03-08T10:02:04;83693.69;;;-1.79;54.16
70437;BME280;57877;39.750;-104.894;2024-03-08T10:04:29;83697.78;;;-1.72;53.19
70437;BME280;57877;39.750;-104.894;2024-03-08T10:06:54;83699.07;;;-1.78;53.13
70437;BME280;57877;39.750;-104.894;2024-03-08T10:09:19;83702.48;;;-2.02;53.29
70437;BME280;57877;39.750;-104.894;2024-03-08T10:11:44;83706.22;;;-2.13;54.69
70437;BME280;57877;39.750;-104.894;2024-03-08T10:14:10;83704.92;;;-2.15;54.13
70437;BME280;57877;39.750;-104.894;2024-03-08T10:16:34;83707.30;;;-3.00;55.14
70437;BME280;57877;39.750;-104.894;2024-03-08T10:19:00;83707.32;;;-1.19;52.24
70437;BME280;57877;39.750;-104.894;2024-03-08T10:21:25;83708.94;;;-1.90;54.40
70437;BME280;57877;39.750;-104.894;2024-03-08T10:23:50;83710.44;;;-2.28;54.19
70437;BME280;57877;39.750;-104.894;2024-03-08T10:26:16;83713.24;;;-2.26;54.19
70437;BME280;57877;39.750;-104.894;2024-03-08T10:28:41;83714.79;;;-2.00;54.68
70437;BME280;57877;39.750;-104.894;2024-03-08T10:31:05;83719.81;;;-2.48;55.96
70437;BME280;57877;39.750;-104.894;2024-03-08T10:33:31;83718.80;;;-2.15;55.86
70437;BME280;57877;39.750;-104.894;2024-03-08T10:35:56;83721.62;;;-2.55;55.62
70437;BME280;57877;39.750;-104.894;2024-03-08T10:38:23;83720.52;;;-2.15;54.90
70437;BME280;57877;39.750;-104.894;2024-03-08T10:40:46;83727.16;;;-2.83;56.95
70437;BME280;57877;39.750;-104.894;2024-03-08T10:43:18;83727.90;;;-3.59;58.51
70437;BME280;57877;39.750;-104.894;2024-03-08T10:45:38;83730.89;;;-3.48;58.72
70437;BME280;57877;39.750;-104.894;2024-03-08T10:48:13;83734.77;;;-2.98;58.56
70437;BME280;57877;39.750;-104.894;2024-03-08T10:50:27;83737.20;;;-3.07;58.48
70437;BME280;57877;39.750;-104.894;2024-03-08T10:52:52;83739.32;;;-3.52;58.83
70437;BME280;57877;39.750;-104.894;2024-03-08T10:55:18;83739.02;;;-3.49;58.72
70437;BME280;57877;39.750;-104.894;2024-03-08T10:57:43;83741.57;;;-2.98;57.84
70437;BME280;57877;39.750;-104.894;2024-03-08T11:00:09;83744.20;;;-2.90;58.52
70437;BME280;57877;39.750;-104.894;2024-03-08T11:02:33;83747.65;;;-2.78;56.53
70437;BME280;57877;39.750;-104.894;2024-03-08T11:04:58;83753.11;;;-2.57;55.81
70437;BME280;57877;39.750;-104.894;2024-03-08T11:07:25;83755.33;;;-2.91;57.25
70437;BME280;57877;39.750;-104.894;2024-03-08T11:09:49;83758.67;;;-3.66;58.35
70437;BME280;57877;39.750;-104.894;2024-03-08T11:12:19;83754.63;;;-3.25;57.58
70437;BME280;57877;39.750;-104.894;2024-03-08T11:14:43;83756.93;;;-3.35;58.21
70437;BME280;57877;39.750;-104.894;2024-03-08T11:17:04;83760.33;;;-3.14;56.32
70437;BME280;57877;39.750;-104.894;2024-03-08T11:19:36;83760.41;;;-2.13;56.08
70437;BME280;57877;39.750;-104.894;2024-03-08T11:21:59;83766.19;;;-3.12;58.35
70437;BME280;57877;39.750;-104.894;2024-03-08T11:24:20;83772.39;;;-2.97;56.07
70437;BME280;57877;39.750;-104.894;2024-03-08T11:26:46;83775.61;;;-2.65;56.94
70437;BME280;57877;39.750;-104.894;2024-03-08T11:31:35;83781.14;;;-3.26;54.82
70437;BME280;57877;39.750;-104.894;2024-03-08T11:34:01;83779.14;;;-2.68;55.10
70437;BME280;57877;39.750;-104.894;2024-03-08T11:36:26;83781.84;;;-2.25;54.68
70437;BME280;57877;39.750;-104.894;2024-03-08T11:38:52;83779.51;;;-2.32;55.09
70437;BME280;57877;39.750;-104.894;2024-03-08T11:41:17;83785.35;;;-2.55;54.66
70437;BME280;57877;39.750;-104.894;2024-03-08T11:43:41;83788.36;;;-2.48;54.12
70437;BME280;57877;39.750;-104.894;2024-03-08T11:46:09;83789.22;;;-2.01;53.49
70437;BME280;57877;39.750;-104.894;2024-03-08T11:48:32;83792.29;;;-2.42;53.71
70437;BME280;57877;39.750;-104.894;2024-03-08T11:51:00;83794.19;;;-2.53;54.04
70437;BME280;57877;39.750;-104.894;2024-03-08T11:53:22;83796.06;;;-2.83;55.60
70437;BME280;57877;39.750;-104.894;2024-03-08T11:55:47;83797.43;;;-2.86;54.22
70437;BME280;57877;39.750;-104.894;2024-03-08T11:58:12;83800.00;;;-3.51;56.37
70437;BME280;57877;39.750;-104.894;2024-03-08T12:00:38;83802.01;;;-3.40;53.03
70437;BME280;57877;39.750;-104.894;2024-03-08T12:03:04;83803.51;;;-3.33;54.26
70437;BME280;57877;39.750;-104.894;2024-03-08T12:05:28;83805.48;;;-2.98;54.75
70437;BME280;57877;39.750;-104.894;2024-03-08T12:07:57;83805.45;;;-2.73;54.66
70437;BME280;57877;39.750;-104.894;2024-03-08T12:10:20;83805.82;;;-2.61;53.78
70437;BME280;57877;39.750;-104.894;2024-03-08T12:12:44;83806.74;;;-2.28;53.19
70437;BME280;57877;39.750;-104.894;2024-03-08T12:15:09;83810.13;;;-3.18;53.88
70437;BME280;57877;39.750;-104.894;2024-03-08T12:17:34;83811.98;;;-2.74;54.59
70437;BME280;57877;39.750;-104.894;2024-03-08T12:20:11;83808.41;;;-2.55;53.54
70437;BME280;57877;39.750;-104.894;2024-03-08T12:22:26;83808.44;;;-1.92;52.09
70437;BME280;57877;39.750;-104.894;2024-03-08T12:27:19;83811.10;;;-2.30;51.84